createdAt,value
2022-10-31T00:01:00.124Z,2.72
2022-10-31T00:03:27.364Z,6.68
2022-10-31T00:05:54.286Z,4.13
2022-10-31T00:08:21.039Z,4.32
2022-10-31T00:10:47.825Z,4.63
2022-10-31T00:13:15.449Z,2.78
2022-10-31T00:15:42.707Z,10.38
2022-10-31T00:18:10.663Z,3.17
2022-10-31T00:20:38.848Z,5.35
2022-10-31T00:23:07.127Z,3.90
2022-10-31T00:25:37.224Z,4.78
2022-10-31T00:28:05.414Z,4.80
2022-10-31T00:30:32.260Z,4.32
2022-10-31T00:32:59.486Z,4.03
2022-10-31T00:35:26.462Z,3.78
2022-10-31T00:37:53.764Z,3.60
2022-10-31T00:40:20.641Z,3.90
2022-10-31T00:42:47.356Z,5.05
2022-10-31T00:45:14.228Z,6.45
2022-10-31T00:47:40.899Z,5.22
2022-10-31T00:50:08.504Z,7.97
2022-10-31T00:52:44.590Z,2.70
2022-10-31T00:55:11.328Z,5.80
2022-10-31T00:57:38.066Z,4.60
2022-10-31T01:00:06.477Z,3.83
2022-10-31T01:02:33.358Z,4.45
2022-10-31T01:05:00.969Z,5.82
2022-10-31T01:07:27.670Z,8.05
2022-10-31T01:09:54.372Z,5.93
2022-10-31T01:12:22.211Z,3.17
2022-10-31T01:14:48.919Z,7.78
2022-10-31T01:17:18.618Z,8.13
2022-10-31T01:19:47.213Z,3.72
2022-10-31T01:22:29.447Z,10.15
2022-10-31T01:24:59.142Z,5.55
2022-10-31T01:27:26.024Z,7.30
2022-10-31T01:29:52.759Z,4.47
2022-10-31T01:32:19.529Z,6.70
2022-10-31T01:34:46.221Z,7.57
2022-10-31T01:37:14.220Z,4.65
2022-10-31T01:39:40.882Z,5.05
2022-10-31T01:42:07.736Z,4.97
2022-10-31T01:44:34.325Z,5.50
2022-10-31T01:47:15.140Z,4.13
2022-10-31T01:49:48.499Z,5.32
2022-10-31T01:52:25.252Z,6.18
2022-10-31T01:55:06.078Z,3.05
2022-10-31T01:57:35.961Z,3.72
2022-10-31T02:00:09.167Z,7.68
2022-10-31T02:02:46.717Z,7.70
2022-10-31T02:05:17.436Z,5.63
2022-10-31T02:07:51.734Z,5.05
2022-10-31T02:10:22.195Z,7.22
2022-10-31T02:12:51.383Z,7.63
2022-10-31T02:15:18.119Z,9.35
2022-10-31T02:17:45.352Z,7.68
2022-10-31T02:20:15.782Z,6.28
2022-10-31T02:23:01.419Z,8.20
2022-10-31T02:25:43.262Z,8.57
2022-10-31T02:28:33.300Z,10.43
2022-10-31T02:31:44.143Z,7.50
2022-10-31T02:34:25.378Z,8.00
2022-10-31T02:37:03.070Z,4.32
2022-10-31T02:40:08.621Z,7.25
2022-10-31T02:43:07.969Z,6.80
2022-10-31T02:45:49.878Z,5.18
2022-10-31T02:48:23.546Z,6.95
2022-10-31T02:50:56.661Z,4.40
2022-10-31T02:53:23.461Z,7.07
2022-10-31T02:55:57.157Z,9.63
2022-10-31T02:58:27.470Z,7.30
2022-10-31T03:01:25.986Z,10.07
2022-10-31T03:04:17.177Z,5.32
2022-10-31T03:06:55.763Z,7.88
2022-10-31T03:09:41.968Z,7.45
2022-10-31T03:12:16.856Z,6.90
2022-10-31T03:14:53.762Z,5.30
2022-10-31T03:17:36.976Z,6.15
2022-10-31T03:20:07.724Z,10.05
2022-10-31T03:22:36.029Z,6.65
2022-10-31T03:25:05.411Z,11.38
2022-10-31T03:27:36.632Z,8.38
2022-10-31T03:30:06.455Z,10.85
2022-10-31T03:32:49.977Z,4.85
2022-10-31T03:35:20.610Z,12.15
2022-10-31T03:37:49.545Z,7.38
2022-10-31T03:40:19.604Z,9.60
2022-10-31T03:42:54.270Z,5.93
2022-10-31T03:45:26.721Z,11.00
2022-10-31T03:47:55.395Z,11.18
2022-10-31T03:50:24.578Z,7.57
2022-10-31T03:53:16.086Z,5.85
2022-10-31T03:55:46.704Z,10.60
2022-10-31T03:58:22.203Z,7.13
2022-10-31T04:00:51.837Z,10.00
2022-10-31T04:03:23.174Z,10.25
2022-10-31T04:05:54.999Z,11.80
2022-10-31T04:08:26.982Z,10.63
2022-10-31T04:10:57.173Z,6.82
2022-10-31T04:13:30.924Z,10.40
2022-10-31T04:16:06.665Z,10.20
2022-10-31T04:18:33.837Z,13.68
2022-10-31T04:21:02.676Z,10.38
2022-10-31T04:23:31.666Z,7.97
2022-10-31T04:25:59.918Z,10.15
2022-10-31T04:28:28.888Z,10.88
2022-10-31T04:30:55.577Z,13.23
2022-10-31T04:33:22.929Z,8.73
2022-10-31T04:35:49.683Z,12.73
2022-10-31T04:38:16.469Z,10.13
2022-10-31T04:40:44.402Z,14.65
2022-10-31T04:43:37.063Z,13.20
2022-10-31T04:46:03.900Z,18.73
2022-10-31T04:48:30.796Z,17.23
2022-10-31T04:51:02.053Z,20.27
2022-10-31T04:53:29.543Z,15.70
2022-10-31T04:56:15.089Z,11.15
2022-10-31T04:58:45.159Z,13.82
2022-10-31T05:01:12.577Z,10.07
2022-10-31T05:03:40.608Z,16.23
2022-10-31T05:06:08.003Z,12.70
2022-10-31T05:08:35.481Z,11.05
2022-10-31T05:11:05.591Z,17.40
2022-10-31T05:13:33.375Z,15.95
2022-10-31T05:16:12.154Z,11.68
2022-10-31T05:18:57.284Z,19.40
2022-10-31T05:21:42.464Z,19.52
2022-10-31T05:24:11.198Z,18.80
2022-10-31T05:26:40.054Z,10.57
2022-10-31T05:29:06.759Z,17.70
2022-10-31T05:31:33.748Z,17.13
2022-10-31T05:34:01.437Z,12.05
2022-10-31T05:36:34.151Z,13.38
2022-10-31T05:39:04.352Z,16.63
2022-10-31T05:41:35.682Z,15.38
2022-10-31T05:44:09.908Z,15.80
2022-10-31T05:46:51.733Z,20.13
2022-10-31T05:49:36.958Z,15.77
2022-10-31T05:52:22.151Z,15.43
2022-10-31T05:54:57.212Z,13.82
2022-10-31T05:57:24.163Z,24.80
2022-10-31T05:59:55.131Z,13.70
2022-10-31T06:02:23.821Z,22.83
2022-10-31T06:05:22.180Z,14.48
2022-10-31T06:07:49.132Z,21.30
2022-10-31T06:10:16.772Z,17.67
2022-10-31T06:12:46.189Z,17.58
2022-10-31T06:15:24.185Z,27.42
2022-10-31T06:18:03.611Z,20.60
2022-10-31T06:20:34.931Z,18.70
2022-10-31T06:23:04.588Z,20.35
2022-10-31T06:25:34.077Z,36.58
2022-10-31T06:28:00.950Z,16.88
2022-10-31T06:30:41.105Z,23.10
2022-10-31T06:33:08.453Z,18.38
2022-10-31T06:35:38.852Z,25.55
2022-10-31T06:38:05.902Z,35.80
2022-10-31T06:40:37.891Z,26.15
2022-10-31T06:43:24.893Z,27.92
2022-10-31T06:46:05.495Z,25.83
2022-10-31T06:48:38.921Z,21.88
2022-10-31T06:51:17.197Z,22.90
2022-10-31T06:53:44.271Z,19.63
2022-10-31T06:56:13.227Z,27.95
2022-10-31T06:58:46.043Z,30.13
2022-10-31T07:01:13.857Z,28.98
2022-10-31T07:03:40.974Z,23.33
2022-10-31T07:06:08.345Z,18.50
2022-10-31T07:08:35.085Z,25.10
2022-10-31T07:11:01.898Z,24.27
2022-10-31T07:13:30.071Z,25.67
2022-10-31T07:16:08.443Z,28.58
2022-10-31T07:18:36.522Z,24.90
2022-10-31T07:21:03.847Z,30.00
2022-10-31T07:23:30.650Z,36.15
2022-10-31T07:26:17.397Z,19.27
2022-10-31T07:28:48.147Z,24.02
2022-10-31T07:31:17.227Z,25.77
2022-10-31T07:33:44.102Z,20.48
2022-10-31T07:36:25.849Z,17.00
2022-10-31T07:38:55.135Z,17.73
2022-10-31T07:41:22.524Z,21.02
2022-10-31T07:43:49.423Z,22.67
2022-10-31T07:46:16.193Z,21.00
2022-10-31T07:49:20.833Z,26.33
2022-10-31T07:52:06.145Z,21.35
2022-10-31T07:54:53.069Z,21.40
2022-10-31T07:57:25.318Z,24.13
2022-10-31T07:59:52.931Z,17.02
2022-10-31T08:02:19.875Z,19.63
2022-10-31T08:04:49.991Z,20.73
2022-10-31T08:07:55.927Z,20.15
2022-10-31T08:10:23.534Z,18.63
2022-10-31T08:13:10.711Z,13.88
2022-10-31T08:15:42.752Z,22.80
2022-10-31T08:18:14.840Z,22.42
2022-10-31T08:20:43.975Z,23.80
2022-10-31T08:23:12.042Z,21.33
2022-10-31T08:25:39.346Z,18.25
2022-10-31T08:28:07.710Z,18.90
2022-10-31T08:30:36.423Z,23.20
2022-10-31T08:33:21.771Z,21.83
2022-10-31T08:36:28.647Z,23.38
2022-10-31T08:39:01.412Z,25.83
2022-10-31T08:41:29.584Z,23.45
2022-10-31T08:43:56.528Z,22.77
2022-10-31T08:46:23.265Z,21.75
2022-10-31T08:48:50.277Z,26.50
2022-10-31T08:51:18.227Z,22.40
2022-10-31T08:53:45.238Z,23.77
2022-10-31T08:56:32.254Z,16.52
2022-10-31T08:59:00.183Z,26.88
2022-10-31T09:01:56.260Z,23.63
2022-10-31T09:04:23.231Z,27.35
2022-10-31T09:07:19.600Z,24.88
2022-10-31T09:09:37.866Z,31.55
2022-10-31T09:12:04.868Z,26.27
2022-10-31T09:14:49.913Z,26.73
2022-10-31T09:17:25.130Z,23.58
2022-10-31T09:20:12.985Z,19.85
2022-10-31T09:22:39.798Z,18.73
2022-10-31T09:25:06.770Z,21.98
2022-10-31T09:27:33.504Z,17.20
2022-10-31T09:30:01.157Z,25.08
2022-10-31T09:32:27.873Z,14.00
2022-10-31T09:34:54.621Z,20.27
2022-10-31T09:37:21.429Z,17.20
2022-10-31T09:39:48.148Z,16.25
2022-10-31T09:42:52.699Z,18.60
2022-10-31T09:45:30.030Z,12.65
2022-10-31T09:48:17.660Z,22.08
2022-10-31T09:51:08.266Z,21.75
2022-10-31T09:54:03.908Z,21.98
2022-10-31T09:56:33.156Z,18.33
2022-10-31T09:59:02.800Z,21.08
2022-10-31T10:01:41.486Z,17.85
2022-10-31T10:04:27.641Z,15.85
2022-10-31T10:07:06.647Z,16.00
2022-10-31T10:09:51.922Z,24.52
2022-10-31T10:12:43.215Z,15.95
2022-10-31T10:15:49.331Z,14.52
2022-10-31T10:18:44.945Z,19.10
2022-10-31T10:21:29.626Z,18.77
2022-10-31T10:24:14.409Z,20.70
2022-10-31T10:27:13.288Z,27.25
2022-10-31T10:29:50.514Z,18.30
2022-10-31T10:32:46.596Z,17.23
2022-10-31T10:35:17.581Z,29.05
2022-10-31T10:37:47.415Z,19.30
2022-10-31T10:40:19.596Z,16.02
2022-10-31T10:43:15.600Z,24.25
2022-10-31T10:46:06.542Z,17.50
2022-10-31T10:49:10.459Z,22.13
2022-10-31T10:52:02.798Z,20.00
2022-10-31T10:54:45.601Z,22.02
2022-10-31T10:57:12.778Z,20.65
2022-10-31T10:59:39.456Z,25.05
2022-10-31T11:02:34.587Z,19.15
2022-10-31T11:05:02.763Z,23.30
2022-10-31T11:07:40.825Z,21.75
2022-10-31T11:10:15.150Z,19.85
2022-10-31T11:12:43.179Z,18.13
2022-10-31T11:15:22.185Z,21.05
2022-10-31T11:17:54.052Z,22.42
2022-10-31T11:20:20.835Z,22.25
2022-10-31T11:22:49.415Z,18.83
2022-10-31T11:25:27.080Z,23.40
2022-10-31T11:28:05.935Z,21.77
2022-10-31T11:30:44.348Z,23.05
2022-10-31T11:33:25.850Z,22.15
2022-10-31T11:35:57.887Z,26.02
2022-10-31T11:38:32.590Z,22.20
2022-10-31T11:41:18.501Z,22.75
2022-10-31T11:44:05.931Z,22.00
2022-10-31T11:46:39.305Z,24.55
2022-10-31T11:49:16.051Z,22.92
2022-10-31T11:51:43.056Z,24.77
2022-10-31T11:54:27.510Z,13.25
2022-10-31T11:56:54.271Z,16.35
2022-10-31T11:59:26.426Z,19.00
2022-10-31T12:01:55.014Z,21.20
2022-10-31T12:04:29.248Z,16.15
2022-10-31T12:06:56.041Z,26.38
2022-10-31T12:09:27.799Z,28.80
2022-10-31T12:12:22.954Z,28.77
2022-10-31T12:14:55.681Z,23.58
2022-10-31T12:17:29.332Z,23.38
2022-10-31T12:20:24.034Z,25.98
2022-10-31T12:22:59.926Z,22.38
2022-10-31T12:25:32.866Z,25.17
2022-10-31T12:28:33.959Z,27.33
2022-10-31T12:31:22.142Z,28.38
2022-10-31T12:34:04.424Z,28.15
2022-10-31T12:36:36.353Z,27.50
2022-10-31T12:39:39.856Z,21.40
2022-10-31T12:42:12.421Z,23.08
2022-10-31T12:45:05.907Z,25.45
2022-10-31T12:47:56.902Z,30.25
2022-10-31T12:50:51.718Z,25.42
2022-10-31T12:53:34.621Z,27.30
2022-10-31T12:56:35.318Z,36.53
2022-10-31T12:59:22.608Z,25.00
2022-10-31T13:02:00.637Z,23.52
2022-10-31T13:04:47.804Z,30.88
2022-10-31T13:07:35.586Z,25.80
2022-10-31T13:10:02.250Z,26.77
2022-10-31T13:12:33.382Z,25.67
2022-10-31T13:15:23.502Z,26.92
2022-10-31T13:17:57.133Z,27.70
2022-10-31T13:20:33.865Z,28.27
2022-10-31T13:23:49.194Z,28.30
2022-10-31T13:26:13.738Z,21.92
2022-10-31T13:29:10.374Z,24.07
2022-10-31T13:31:41.227Z,25.58
2022-10-31T13:34:21.323Z,26.65
2022-10-31T13:36:58.102Z,25.45
2022-10-31T13:40:01.961Z,23.48
2022-10-31T13:42:40.523Z,27.42
2022-10-31T13:45:15.853Z,36.35
2022-10-31T13:47:46.257Z,30.67
2022-10-31T13:50:19.384Z,27.87
2022-10-31T13:52:46.761Z,27.00
2022-10-31T13:55:36.345Z,30.40
2022-10-31T13:58:25.857Z,31.77
2022-10-31T14:01:07.214Z,32.58
2022-10-31T14:06:25.068Z,36.05
2022-10-31T14:08:53.239Z,36.95
2022-10-31T14:11:32.825Z,26.35
2022-10-31T14:14:03.265Z,22.25
2022-10-31T14:16:32.872Z,33.88
2022-10-31T14:19:09.240Z,29.70
2022-10-31T14:21:42.932Z,38.67
2022-10-31T14:24:26.095Z,30.17
2022-10-31T14:27:20.292Z,34.08
2022-10-31T14:29:50.435Z,32.42
2022-10-31T14:32:25.302Z,40.30
2022-10-31T14:34:51.941Z,30.85
2022-10-31T14:37:24.540Z,34.72
2022-10-31T14:40:12.701Z,31.52
2022-10-31T14:42:58.186Z,32.25
2022-10-31T14:45:50.851Z,34.92
2022-10-31T14:48:41.933Z,27.10
2022-10-31T14:51:17.786Z,30.90
2022-10-31T14:53:53.551Z,38.90
2022-10-31T14:56:27.988Z,31.92
2022-10-31T14:58:58.764Z,31.48
2022-10-31T15:01:37.776Z,25.95
2022-10-31T15:04:24.740Z,34.17
2022-10-31T15:07:37.719Z,38.65
2022-10-31T15:10:07.728Z,35.30
2022-10-31T15:12:39.378Z,28.27
2022-10-31T15:15:20.060Z,27.40
2022-10-31T15:17:51.383Z,29.45
2022-10-31T15:22:46.961Z,30.20
2022-10-31T15:25:19.611Z,40.03
2022-10-31T15:27:47.995Z,35.65
2022-10-31T15:30:26.383Z,37.33
2022-10-31T15:33:01.126Z,29.05
2022-10-31T15:35:30.417Z,37.55
2022-10-31T15:38:02.601Z,31.27
2022-10-31T15:40:29.631Z,27.58
2022-10-31T15:43:02.924Z,32.80
2022-10-31T15:45:31.477Z,29.58
2022-10-31T15:48:02.150Z,30.98
2022-10-31T15:50:54.532Z,30.67
2022-10-31T15:53:43.935Z,32.08
2022-10-31T15:56:14.783Z,32.53
2022-10-31T15:58:48.297Z,23.92
2022-10-31T16:01:26.550Z,30.92
2022-10-31T16:04:19.527Z,24.73
2022-10-31T16:06:59.494Z,42.47
2022-10-31T16:09:26.335Z,28.25
2022-10-31T16:11:53.470Z,30.23
2022-10-31T16:14:25.825Z,29.38
2022-10-31T16:16:58.733Z,31.35
2022-10-31T16:19:29.856Z,33.97
2022-10-31T16:22:13.205Z,49.85
2022-10-31T16:24:52.112Z,33.03
2022-10-31T16:27:26.729Z,30.98
2022-10-31T16:29:53.954Z,30.33
2022-10-31T16:32:52.391Z,33.10
2022-10-31T16:35:24.546Z,30.15
2022-10-31T16:37:51.277Z,29.92
2022-10-31T16:40:18.698Z,33.33
2022-10-31T16:42:46.262Z,25.75
2022-10-31T16:45:31.172Z,33.22
2022-10-31T16:48:07.203Z,34.92
2022-10-31T16:50:34.086Z,43.83
2022-10-31T16:53:16.157Z,34.22
2022-10-31T16:55:46.763Z,39.05
2022-10-31T16:58:22.045Z,23.30
2022-10-31T17:00:49.140Z,34.95
2022-10-31T17:03:16.036Z,34.40
2022-10-31T17:05:42.781Z,36.83
2022-10-31T17:08:09.453Z,38.30
2022-10-31T17:10:36.863Z,40.42
2022-10-31T17:13:05.631Z,38.15
2022-10-31T17:15:42.659Z,28.85
2022-10-31T17:18:13.255Z,33.33
2022-10-31T17:20:40.038Z,34.95
2022-10-31T17:23:06.670Z,29.90
2022-10-31T17:25:33.408Z,24.33
2022-10-31T17:28:00.131Z,36.63
2022-10-31T17:30:27.104Z,35.28
2022-10-31T17:32:55.331Z,44.47
2022-10-31T17:35:22.161Z,38.38
2022-10-31T17:37:49.275Z,30.73
2022-10-31T17:40:21.810Z,33.40
2022-10-31T17:42:53.905Z,31.73
2022-10-31T17:45:21.934Z,33.00
2022-10-31T17:47:49.825Z,29.60
2022-10-31T17:50:18.148Z,35.80
2022-10-31T17:52:45.304Z,36.88
2022-10-31T17:55:12.835Z,38.22
2022-10-31T17:57:39.992Z,37.20
2022-10-31T18:00:09.606Z,32.05
2022-10-31T18:05:05.868Z,32.05
2022-10-31T18:07:33.181Z,32.67
2022-10-31T18:10:00.372Z,32.67
2022-10-31T18:12:27.729Z,27.38
2022-10-31T18:14:55.052Z,29.05
2022-10-31T18:17:22.082Z,32.78
2022-10-31T18:19:49.065Z,38.92
2022-10-31T18:22:15.744Z,33.78
2022-10-31T18:24:42.399Z,24.92
2022-10-31T18:27:09.168Z,26.75
2022-10-31T18:29:35.777Z,32.67
2022-10-31T18:32:06.906Z,28.33
2022-10-31T18:34:36.078Z,24.42
2022-10-31T18:37:03.275Z,45.17
2022-10-31T18:39:30.053Z,26.65
2022-10-31T18:41:56.883Z,35.85
2022-10-31T18:44:23.619Z,30.90
2022-10-31T18:46:50.364Z,36.50
2022-10-31T18:49:22.502Z,40.67
2022-10-31T18:51:50.616Z,34.90
2022-10-31T18:54:17.956Z,38.17
2022-10-31T18:56:45.342Z,29.30
2022-10-31T18:59:12.415Z,35.20
2022-10-31T19:01:40.039Z,29.35
2022-10-31T19:04:06.948Z,36.00
2022-10-31T19:06:33.960Z,33.85
2022-10-31T19:09:04.427Z,29.75
2022-10-31T19:11:34.968Z,27.25
2022-10-31T19:14:02.063Z,26.75
2022-10-31T19:16:29.416Z,33.88
2022-10-31T19:18:58.605Z,29.55
2022-10-31T19:21:25.943Z,23.50
2022-10-31T19:23:54.531Z,40.20
2022-10-31T19:26:21.255Z,28.80
2022-10-31T19:28:48.091Z,29.70
2022-10-31T19:31:14.965Z,30.02
2022-10-31T19:33:41.717Z,28.40
2022-10-31T19:36:11.054Z,29.48
2022-10-31T19:38:41.544Z,37.03
2022-10-31T19:41:20.494Z,27.23
2022-10-31T19:43:47.235Z,52.53
2022-10-31T19:46:27.749Z,28.58
2022-10-31T19:49:02.715Z,28.50
2022-10-31T19:51:29.428Z,38.92
2022-10-31T19:53:56.135Z,36.08
2022-10-31T19:56:25.412Z,29.90
2022-10-31T19:58:52.525Z,26.42
2022-10-31T20:01:21.949Z,37.30
2022-10-31T20:03:51.565Z,33.88
2022-10-31T20:06:39.533Z,25.20
2022-10-31T20:09:09.620Z,28.60
2022-10-31T20:11:38.916Z,25.80
2022-10-31T20:14:06.253Z,31.42
2022-10-31T20:16:33.381Z,34.65
2022-10-31T20:19:00.421Z,26.48
2022-10-31T20:21:30.036Z,35.33
2022-10-31T20:24:01.408Z,37.13
2022-10-31T20:28:56.903Z,32.25
2022-10-31T20:31:26.489Z,27.88
2022-10-31T20:33:54.272Z,30.40
2022-10-31T20:36:22.923Z,35.10
2022-10-31T20:38:51.855Z,26.48
2022-10-31T20:41:18.875Z,22.95
2022-10-31T20:43:45.832Z,27.33
2022-10-31T20:46:18.905Z,25.92
2022-10-31T20:48:46.207Z,33.53
2022-10-31T20:51:18.875Z,26.38
2022-10-31T20:53:45.636Z,37.78
2022-10-31T20:56:14.690Z,39.20
2022-10-31T20:58:43.009Z,33.30
2022-10-31T21:01:20.284Z,32.40
2022-10-31T21:03:48.885Z,34.58
2022-10-31T21:06:17.188Z,33.53
2022-10-31T21:08:51.475Z,39.40
2022-10-31T21:11:21.397Z,36.40
2022-10-31T21:13:49.314Z,31.10
2022-10-31T21:16:19.113Z,32.70
2022-10-31T21:18:46.863Z,29.08
2022-10-31T21:21:24.131Z,25.30
2022-10-31T21:24:03.517Z,37.50
2022-10-31T21:26:33.730Z,33.90
2022-10-31T21:29:01.301Z,24.35
2022-10-31T21:31:28.425Z,26.85
2022-10-31T21:33:56.051Z,28.38
2022-10-31T21:36:23.197Z,34.25
2022-10-31T21:38:51.462Z,30.48
2022-10-31T21:41:19.226Z,29.92
2022-10-31T21:43:47.473Z,21.45
2022-10-31T21:46:20.187Z,36.10
2022-10-31T21:48:47.612Z,25.63
2022-10-31T21:51:18.328Z,27.08
2022-10-31T21:54:03.709Z,25.02
2022-10-31T21:56:30.605Z,23.67
2022-10-31T21:58:57.608Z,30.65
2022-10-31T22:01:26.338Z,20.85
2022-10-31T22:03:53.291Z,27.38
2022-10-31T22:06:20.615Z,30.02
2022-10-31T22:08:47.770Z,25.25
2022-10-31T22:11:16.451Z,19.65
2022-10-31T22:13:46.321Z,25.63
2022-10-31T22:16:18.734Z,28.77
2022-10-31T22:18:46.315Z,23.65
2022-10-31T22:21:16.344Z,27.90
2022-10-31T22:23:43.979Z,21.63
2022-10-31T22:26:15.304Z,25.23
2022-10-31T22:33:44.201Z,28.83
2022-10-31T22:36:13.818Z,40.33
2022-10-31T22:38:41.977Z,28.10
2022-10-31T22:41:12.922Z,26.50
2022-10-31T22:43:40.064Z,26.05
2022-10-31T22:46:08.938Z,22.55
2022-10-31T22:48:38.090Z,24.63
2022-10-31T22:51:29.476Z,26.20
2022-10-31T22:53:56.793Z,20.45
2022-10-31T22:56:26.791Z,23.98
2022-10-31T22:58:54.002Z,27.67
2022-10-31T23:01:24.574Z,24.98
2022-10-31T23:03:51.888Z,17.00
2022-10-31T23:06:21.257Z,20.92
2022-10-31T23:08:49.101Z,27.00
2022-10-31T23:11:17.139Z,27.83
2022-10-31T23:14:04.273Z,22.48
2022-10-31T23:16:31.902Z,18.02
2022-10-31T23:19:00.007Z,28.92
2022-10-31T23:21:53.867Z,21.83
2022-10-31T23:24:23.065Z,23.40
2022-10-31T23:27:10.135Z,28.77
2022-10-31T23:29:50.255Z,20.95
2022-10-31T23:32:32.179Z,30.27
2022-10-31T23:35:02.288Z,32.80
2022-10-31T23:37:31.334Z,26.48
2022-10-31T23:39:58.321Z,26.45
2022-10-31T23:42:26.225Z,28.90
2022-10-31T23:44:53.659Z,28.25
2022-10-31T23:47:21.894Z,22.70
2022-10-31T23:49:49.121Z,25.33
2022-10-31T23:52:19.392Z,30.20
2022-10-31T23:54:46.133Z,31.08
2022-10-31T23:57:14.327Z,27.98
2022-10-31T23:59:41.679Z,27.77
